Hodgesville, Alabama
Current Conditions -  °F | °C
As of 3:53 AM on Monday 22 Dec 2014 (Local Time) from KDHN Reporting Station
Moderate Fog Moderate Fog  
Wind Chill: 50°   Ceiling: 200
Heat Index: 50°   Visibility: 0.5mi
Dew Point: 50°   Wind: 8mph
Humidity: 100%   Direction: 70°ENE
Pressure: 30"   Gusts: NA
Location:  31.2035°N, 85.4998°W
Report Text: KDHN 220953Z AUTO 07007KT 1/2SM FG VV002 10/10 A3000 RMK AO2 RAE0859 SLP156 P0000 T01000100
Loading
Personal Weather Stations






























Interactive Weather Map New forecast layout! Learn more

10-Day Weather Forecast

Advertisements
Track Severe Weather on mobile